Time;durP1;ratioP1;P1;durP2;ratioP2;P2;SDS_P1;SDS_P2;PMS_P1;PMS_P2;Temp;Humidity;BMP_temperature;BMP_pressure;BME280_temperature;BME280_humidity;BME280_pressure;Samples;Min_cycle;Max_cycle;Signal;HPM_P1;HPM_P2
2021/12/10 00:01:57;;;;;;;19.77;13.33;;;1.80;99.90;;;;;;4985617;28;20188;-71
2021/12/10 00:04:29;;;;;;;17.20;14.13;;;1.80;99.90;;;;;;4975017;28;20661;-72
2021/12/10 00:07:03;;;;;;;15.73;13.30;;;1.80;99.90;;;;;;4975543;28;20184;-72
2021/12/10 00:09:33;;;;;;;10.53;9.23;;;1.80;99.90;;;;;;4992881;28;20182;-71
2021/12/10 00:12:30;;;;;;;21.17;14.37;;;1.80;99.90;;;;;;4991734;28;20673;-72
2021/12/10 00:14:56;;;;;;;19.37;14.13;;;1.70;99.90;;;;;;4975150;28;20675;-71
2021/12/10 00:17:23;;;;;;;22.40;13.83;;;1.70;99.90;;;;;;4987538;28;20195;-72
2021/12/10 00:19:55;;;;;;;17.77;13.03;;;1.70;99.90;;;;;;4973415;28;20194;-72
2021/12/10 00:22:26;;;;;;;16.93;13.40;;;1.80;99.90;;;;;;4973611;28;20175;-72
2021/12/10 00:24:54;;;;;;;20.57;14.27;;;1.80;99.90;;;;;;4977648;28;20209;-72
2021/12/10 00:27:27;;;;;;;17.10;13.60;;;1.80;99.90;;;;;;4988810;28;20232;-72
2021/12/10 00:30:03;;;;;;;17.40;13.83;;;1.70;99.90;;;;;;4973309;28;20664;-72
2021/12/10 00:32:34;;;;;;;16.57;13.47;;;1.80;99.90;;;;;;4973111;28;20264;-74
2021/12/10 00:35:03;;;;;;;15.23;13.00;;;1.80;99.90;;;;;;4974024;28;20179;-72
2021/12/10 00:37:29;;;;;;;15.40;13.37;;;1.70;99.90;;;;;;4973462;28;20202;-72
2021/12/10 00:39:57;;;;;;;14.87;11.90;;;1.80;99.90;;;;;;4955916;28;20186;-72
2021/12/10 00:42:30;;;;;;;16.47;11.43;;;1.80;99.90;;;;;;4973039;28;20171;-73
2021/12/10 00:44:57;;;;;;;14.93;12.23;;;1.80;99.90;;;;;;4973162;28;20273;-73
2021/12/10 00:47:24;;;;;;;16.60;12.87;;;1.80;99.90;;;;;;4973178;28;20209;-73
2021/12/10 00:49:51;;;;;;;21.27;12.20;;;1.80;99.90;;;;;;4973202;28;20191;-75
2021/12/10 00:52:17;;;;;;;15.63;12.33;;;1.90;99.90;;;;;;4958404;28;20214;-73
2021/12/10 00:54:44;;;;;;;16.83;12.33;;;1.90;99.90;;;;;;4972961;28;20285;-73
2021/12/10 00:57:11;;;;;;;17.17;13.10;;;1.80;99.90;;;;;;4972971;28;20662;-73
2021/12/10 00:59:38;;;;;;;17.90;13.50;;;1.90;99.90;;;;;;4973009;28;20214;-74
2021/12/10 01:02:08;;;;;;;16.87;12.73;;;1.80;99.90;;;;;;4989097;28;20248;-74
2021/12/10 01:04:35;;;;;;;17.43;12.80;;;1.80;99.90;;;;;;4992115;28;20687;-73
2021/12/10 01:07:07;;;;;;;18.87;13.23;;;1.80;99.90;;;;;;4991372;28;20317;-73
2021/12/10 01:09:35;;;;;;;20.07;13.67;;;1.80;99.90;;;;;;4974241;28;20191;-74
2021/12/10 01:12:08;;;;;;;17.20;13.40;;;1.80;99.90;;;;;;4994684;28;20267;-76
2021/12/10 01:25:53;;;;;;;14.83;12.27;;;1.80;99.90;;;;;;4979041;28;20202;-74
2021/12/10 01:28:20;;;;;;;16.87;11.30;;;1.80;99.90;;;;;;4975351;28;20221;-74
2021/12/10 01:30:46;;;;;;;18.40;12.73;;;1.70;99.90;;;;;;4976151;28;20293;-72
2021/12/10 01:33:17;;;;;;;16.53;11.90;;;1.80;99.90;;;;;;4958813;28;20270;-74
2021/12/10 01:35:53;;;;;;;14.27;11.10;;;1.70;99.90;;;;;;4976242;28;20183;-74
2021/12/10 01:38:20;;;;;;;15.00;11.90;;;1.70;99.90;;;;;;4976107;28;20543;-74
2021/12/10 01:40:49;;;;;;;15.07;12.20;;;1.60;99.90;;;;;;4977285;28;20181;-75
2021/12/10 01:43:23;;;;;;;14.07;11.50;;;1.60;99.90;;;;;;4974949;28;20194;-74
2021/12/10 01:46:01;;;;;;;13.30;11.67;;;1.60;99.90;;;;;;4975824;28;20174;-74
2021/12/10 01:48:37;;;;;;;9.27;8.27;;;1.60;99.90;;;;;;4994023;28;20208;-74
2021/12/10 01:51:04;;;;;;;14.73;9.93;;;1.60;99.90;;;;;;4978191;28;20213;-74
2021/12/10 01:53:34;;;;;;;13.70;10.80;;;1.70;99.90;;;;;;4980768;28;20186;-72
2021/12/10 01:56:08;;;;;;;14.57;11.10;;;1.80;99.90;;;;;;4975811;28;20236;-74
2021/12/10 01:58:34;;;;;;;13.57;10.73;;;1.80;99.90;;;;;;4977069;28;20587;-74
2021/12/10 02:01:05;;;;;;;19.57;11.63;;;1.70;99.90;;;;;;4979344;28;20187;-74
2021/12/10 02:03:32;;;;;;;15.90;11.10;;;1.70;99.90;;;;;;4958595;28;20179;-74
2021/12/10 02:05:58;;;;;;;15.20;11.30;;;1.60;99.90;;;;;;4958275;28;20193;-74
2021/12/10 02:08:24;;;;;;;15.50;10.03;;;1.70;99.90;;;;;;4978137;28;20700;-74
2021/12/10 02:10:49;;;;;;;14.13;11.00;;;1.70;99.90;;;;;;4993554;28;20292;-75
2021/12/10 02:13:15;;;;;;;14.57;11.20;;;1.90;99.90;;;;;;4994869;28;20186;-74
2021/12/10 02:15:41;;;;;;;13.20;10.70;;;1.90;99.90;;;;;;4993297;28;20178;-73
2021/12/10 02:18:08;;;;;;;14.73;10.90;;;1.80;99.90;;;;;;4987496;28;20705;-75
2021/12/10 02:20:56;;;;;;;12.50;10.10;;;1.90;99.90;;;;;;4995222;28;20196;-74
2021/12/10 02:23:22;;;;;;;17.07;10.97;;;1.90;99.90;;;;;;4993414;28;20185;-74
2021/12/10 02:25:48;;;;;;;14.17;11.20;;;1.90;99.90;;;;;;4982245;28;20216;-74
2021/12/10 02:28:15;;;;;;;12.97;10.57;;;1.90;99.90;;;;;;4975112;28;20293;-74
2021/12/10 02:30:41;;;;;;;13.87;10.10;;;2.00;99.90;;;;;;4976314;28;20213;-74
2021/12/10 02:33:08;;;;;;;11.33;9.83;;;2.00;99.90;;;;;;4975176;28;20185;-74
2021/12/10 02:35:34;;;;;;;10.87;9.73;;;1.90;99.90;;;;;;4990238;28;20187;-74
2021/12/10 02:38:00;;;;;;;12.90;9.70;;;1.90;99.90;;;;;;4994580;28;20260;-74
2021/12/10 02:40:28;;;;;;;13.47;10.53;;;1.90;99.90;;;;;;4994395;28;20178;-74
2021/12/10 02:42:55;;;;;;;13.07;10.17;;;2.00;99.90;;;;;;4993319;28;20186;-72
2021/12/10 02:45:23;;;;;;;12.23;10.10;;;1.90;99.90;;;;;;4976589;28;20240;-72
2021/12/10 02:47:50;;;;;;;12.83;9.77;;;1.90;99.90;;;;;;4989859;28;20665;-72
2021/12/10 02:50:19;;;;;;;18.63;10.37;;;1.90;99.90;;;;;;4973520;28;20275;-72
2021/12/10 02:52:45;;;;;;;13.87;10.10;;;1.90;99.90;;;;;;4975016;28;20584;-71
2021/12/10 02:55:14;;;;;;;11.03;9.60;;;1.90;99.90;;;;;;4957179;28;20178;-71
2021/12/10 02:57:41;;;;;;;12.07;9.57;;;2.00;99.90;;;;;;4974672;28;20198;-71
2021/12/10 03:00:11;;;;;;;11.33;10.10;;;1.90;99.90;;;;;;4974714;28;20185;-71
2021/12/10 03:02:37;;;;;;;13.87;10.57;;;2.00;99.90;;;;;;4985520;28;20613;-71
2021/12/10 03:05:05;;;;;;;17.03;10.70;;;2.00;99.90;;;;;;4993681;28;20192;-71
2021/12/10 03:07:31;;;;;;;13.23;9.47;;;1.90;99.90;;;;;;4992686;28;20237;-72
2021/12/10 03:09:57;;;;;;;12.23;9.67;;;1.90;99.90;;;;;;4994256;28;20185;-72
2021/12/10 03:12:23;;;;;;;13.10;9.50;;;1.90;99.90;;;;;;4993784;28;20206;-72
2021/12/10 03:14:53;;;;;;;11.03;9.30;;;1.90;99.90;;;;;;4992887;28;20660;-71
2021/12/10 03:17:24;;;;;;;13.33;10.70;;;2.00;99.90;;;;;;4975413;28;20541;-72
2021/12/10 03:19:50;;;;;;;12.63;9.87;;;1.90;99.90;;;;;;4974217;28;20190;-71
2021/12/10 03:22:16;;;;;;;11.27;9.80;;;1.90;99.90;;;;;;4974399;28;20226;-71
2021/12/10 03:24:42;;;;;;;13.17;9.57;;;2.00;99.90;;;;;;4974111;28;20202;-71
2021/12/10 03:27:10;;;;;;;11.67;9.43;;;1.90;99.90;;;;;;4974416;28;20241;-72
2021/12/10 03:29:39;;;;;;;11.07;9.90;;;1.90;99.90;;;;;;4974206;28;20198;-72
2021/12/10 03:32:08;;;;;;;16.67;10.23;;;1.90;99.90;;;;;;4992996;28;20225;-72
2021/12/10 03:34:34;;;;;;;16.17;10.03;;;1.90;99.90;;;;;;4973926;28;20190;-72
2021/12/10 03:37:01;;;;;;;18.57;10.03;;;1.80;99.90;;;;;;4973884;28;20170;-72
2021/12/10 03:39:28;;;;;;;12.03;9.73;;;1.80;99.90;;;;;;4973991;28;20527;-71
2021/12/10 03:41:56;;;;;;;10.57;9.47;;;1.90;99.90;;;;;;4973807;28;20235;-72
2021/12/10 03:44:22;;;;;;;11.93;9.13;;;1.90;99.90;;;;;;4969860;28;20563;-71
2021/12/10 03:46:47;;;;;;;13.03;9.77;;;2.00;99.90;;;;;;4974016;28;20186;-71
2021/12/10 03:49:14;;;;;;;10.37;9.17;;;2.00;99.90;;;;;;4975948;28;20190;-72
2021/12/10 03:51:40;;;;;;;11.67;9.63;;;2.00;99.90;;;;;;4992949;28;20585;-72
2021/12/10 03:54:07;;;;;;;14.27;9.70;;;2.00;99.90;;;;;;4988455;28;20657;-71
2021/12/10 03:56:34;;;;;;;19.17;10.47;;;2.10;99.90;;;;;;4992079;28;20174;-71
2021/12/10 03:59:04;;;;;;;14.70;9.73;;;1.90;99.90;;;;;;4993325;28;20578;-71
2021/12/10 04:01:33;;;;;;;9.53;8.53;;;1.90;99.90;;;;;;4991843;28;20232;-72
2021/12/10 04:04:01;;;;;;;11.47;9.27;;;2.00;99.90;;;;;;4984509;28;20197;-71
2021/12/10 04:06:28;;;;;;;12.00;8.30;;;2.00;99.90;;;;;;4992632;28;20587;-71
2021/12/10 04:08:54;;;;;;;11.93;9.13;;;1.90;99.90;;;;;;4982661;28;20634;-71
2021/12/10 04:11:21;;;;;;;11.17;8.67;;;1.90;99.90;;;;;;4955735;28;20245;-71
2021/12/10 04:13:49;;;;;;;11.03;8.70;;;2.00;99.90;;;;;;4973451;28;20175;-71
2021/12/10 04:16:17;;;;;;;12.17;9.00;;;2.10;99.90;;;;;;4973632;28;20175;-72
2021/12/10 04:18:44;;;;;;;11.13;8.80;;;2.00;99.90;;;;;;4973271;28;20198;-72
2021/12/10 04:21:12;;;;;;;9.90;8.20;;;2.10;99.90;;;;;;4974510;28;20198;-72
2021/12/10 04:23:38;;;;;;;10.97;8.63;;;2.10;99.90;;;;;;4973341;28;20266;-71
2021/12/10 04:26:04;;;;;;;13.37;9.63;;;1.90;99.90;;;;;;4973192;28;20273;-71
2021/12/10 04:28:29;;;;;;;12.20;9.17;;;1.80;99.90;;;;;;4973232;28;20202;-72
2021/12/10 04:30:55;;;;;;;12.07;9.27;;;1.80;99.90;;;;;;4973153;28;20266;-71
2021/12/10 04:33:26;;;;;;;14.83;10.50;;;1.80;99.90;;;;;;4983705;28;20182;-71
2021/12/10 04:35:55;;;;;;;12.27;10.37;;;1.90;99.90;;;;;;4974894;28;20641;-71
2021/12/10 04:38:24;;;;;;;12.73;9.17;;;1.80;99.90;;;;;;4988959;28;20249;-72
2021/12/10 04:40:51;;;;;;;14.73;9.87;;;1.70;99.90;;;;;;4955888;28;20174;-71
2021/12/10 04:43:19;;;;;;;11.57;10.23;;;1.60;99.90;;;;;;4988462;28;20268;-71
2021/12/10 04:45:46;;;;;;;11.23;9.77;;;1.70;99.90;;;;;;4993550;28;20177;-71
2021/12/10 04:48:11;;;;;;;12.00;10.23;;;1.80;99.90;;;;;;4992347;28;20218;-71
2021/12/10 04:50:38;;;;;;;12.90;10.73;;;1.90;99.90;;;;;;4996094;28;20221;-71
2021/12/10 04:53:07;;;;;;;11.50;10.17;;;1.90;99.90;;;;;;4996269;28;20191;-71
2021/12/10 04:55:34;;;;;;;12.50;10.43;;;1.80;99.90;;;;;;4980500;28;20178;-71
2021/12/10 04:57:59;;;;;;;13.10;10.83;;;1.80;99.90;;;;;;4996263;28;20189;-71
2021/12/10 05:00:31;;;;;;;14.90;10.07;;;1.80;99.90;;;;;;4996408;28;20173;-71
2021/12/10 05:03:00;;;;;;;18.00;12.00;;;1.70;99.90;;;;;;4996356;28;20201;-72
2021/12/10 05:05:27;;;;;;;13.93;11.83;;;1.60;99.90;;;;;;4995380;28;20186;-71
2021/12/10 05:07:53;;;;;;;14.97;11.37;;;1.50;99.90;;;;;;4996094;28;20198;-72
2021/12/10 05:10:19;;;;;;;14.07;11.47;;;1.60;99.90;;;;;;4992536;28;20174;-72
2021/12/10 05:12:45;;;;;;;17.87;12.63;;;1.60;99.90;;;;;;4993208;28;20664;-71
2021/12/10 05:15:20;;;;;;;12.90;11.40;;;1.50;99.90;;;;;;4990410;28;20182;-72
2021/12/10 05:17:48;;;;;;;15.90;13.13;;;1.40;99.90;;;;;;4976573;28;20194;-72
2021/12/10 05:20:18;;;;;;;14.67;11.83;;;1.40;99.90;;;;;;4976300;28;20216;-70
2021/12/10 05:22:46;;;;;;;19.07;13.37;;;1.30;99.90;;;;;;4980450;28;20241;-71
2021/12/10 05:25:13;;;;;;;15.50;11.67;;;1.30;99.90;;;;;;4978142;28;20189;-72
2021/12/10 05:27:39;;;;;;;14.47;11.73;;;1.30;99.90;;;;;;4994807;28;20241;-72
2021/12/10 05:30:08;;;;;;;16.00;10.93;;;1.30;99.90;;;;;;4978552;28;20186;-73
2021/12/10 05:32:34;;;;;;;14.60;12.07;;;1.40;99.90;;;;;;4978304;28;20758;-73
2021/12/10 05:35:00;;;;;;;14.97;12.13;;;1.40;99.90;;;;;;4992753;28;20265;-74
2021/12/10 05:37:26;;;;;;;15.37;11.20;;;1.30;99.90;;;;;;4976660;28;20193;-73
2021/12/10 05:39:52;;;;;;;12.90;11.53;;;1.40;99.90;;;;;;4976223;28;20167;-73
2021/12/10 05:42:17;;;;;;;15.57;12.03;;;1.50;99.90;;;;;;4975924;28;20179;-72
2021/12/10 05:44:43;;;;;;;15.83;12.50;;;1.50;99.90;;;;;;4990382;28;20680;-70
2021/12/10 05:47:09;;;;;;;16.17;11.50;;;1.50;99.90;;;;;;4995630;28;20221;-71
2021/12/10 05:49:35;;;;;;;14.37;11.97;;;1.50;99.90;;;;;;4990209;28;20213;-71
2021/12/10 05:52:02;;;;;;;19.83;12.57;;;1.40;99.90;;;;;;4980271;28;20280;-72
2021/12/10 05:54:28;;;;;;;16.50;11.27;;;1.20;99.90;;;;;;4995262;28;20170;-72
2021/12/10 05:56:53;;;;;;;16.33;12.30;;;1.10;99.90;;;;;;4994924;28;20278;-70
2021/12/10 05:59:19;;;;;;;16.40;12.37;;;1.00;99.90;;;;;;4995258;28;20194;-71
2021/12/10 06:01:45;;;;;;;15.63;11.97;;;0.80;99.90;;;;;;4980262;28;20692;-70
2021/12/10 06:04:11;;;;;;;20.83;13.20;;;0.70;99.90;;;;;;4980944;28;20187;-70
2021/12/10 06:06:37;;;;;;;15.03;12.03;;;0.70;99.90;;;;;;4975698;28;20463;-72
2021/12/10 06:09:07;;;;;;;13.97;11.13;;;0.60;99.90;;;;;;4958280;28;20198;-73
2021/12/10 06:11:33;;;;;;;16.13;11.60;;;0.60;99.90;;;;;;4987190;28;20198;-75
2021/12/10 06:13:59;;;;;;;15.57;11.50;;;0.50;99.90;;;;;;4994969;28;20185;-74
2021/12/10 06:16:25;;;;;;;18.33;12.43;;;0.50;99.90;;;;;;4993056;28;20174;-75
2021/12/10 06:18:51;;;;;;;18.73;12.63;;;0.30;99.90;;;;;;4975771;28;20237;-75
2021/12/10 06:21:18;;;;;;;16.60;13.00;;;0.30;99.90;;;;;;4994964;28;20267;-75
2021/12/10 06:23:44;;;;;;;17.43;11.83;;;0.10;99.90;;;;;;4994740;28;20177;-75
2021/12/10 06:26:10;;;;;;;17.27;12.93;;;0.10;99.90;;;;;;4993648;28;20513;-74
2021/12/10 06:28:38;;;;;;;18.57;11.77;;;0.00;99.90;;;;;;4994712;28;20751;-74
2021/12/10 06:31:05;;;;;;;15.47;12.33;;;-0.10;99.90;;;;;;4994602;28;20276;-74
2021/12/10 06:33:31;;;;;;;20.77;13.10;;;-0.10;99.90;;;;;;4992033;28;20749;-77
2021/12/10 06:36:03;;;;;;;21.13;13.17;;;-0.20;99.90;;;;;;4976616;28;20269;-77
2021/12/10 06:38:29;;;;;;;21.43;13.70;;;-0.20;99.90;;;;;;4977159;28;20270;-77
2021/12/10 06:40:56;;;;;;;23.33;14.33;;;-0.20;99.90;;;;;;4977259;28;20185;-78
2021/12/10 06:43:22;;;;;;;21.13;14.30;;;-0.20;99.90;;;;;;4993966;28;20174;-76
2021/12/10 06:45:51;;;;;;;20.93;13.97;;;-0.20;99.90;;;;;;4994195;28;20181;-76
2021/12/10 06:48:17;;;;;;;22.87;14.43;;;-0.20;99.90;;;;;;4993720;28;20311;-76
2021/12/10 06:50:51;;;;;;;23.13;14.23;;;-0.20;99.90;;;;;;4984517;28;20193;-76
2021/12/10 06:53:19;;;;;;;19.87;14.23;;;-0.10;99.90;;;;;;4979344;28;20174;-75
2021/12/10 06:55:46;;;;;;;24.10;14.70;;;0.00;99.90;;;;;;4992741;28;20182;-73
2021/12/10 06:58:12;;;;;;;22.17;15.33;;;0.00;99.90;;;;;;4994341;28;20190;-75
2021/12/10 07:00:42;;;;;;;18.87;13.13;;;0.10;99.90;;;;;;4994078;28;20241;-76
2021/12/10 07:03:11;;;;;;;17.77;13.43;;;0.30;99.90;;;;;;4980092;28;20555;-74
2021/12/10 07:05:37;;;;;;;21.30;14.20;;;0.40;99.90;;;;;;4974317;28;20171;-74
2021/12/10 07:08:03;;;;;;;19.60;14.03;;;0.40;99.90;;;;;;4975094;28;20209;-74
2021/12/10 07:10:29;;;;;;;17.97;13.27;;;0.50;99.90;;;;;;4978667;28;20182;-74
2021/12/10 07:12:55;;;;;;;19.10;13.53;;;0.50;99.90;;;;;;4993871;28;20264;-73
2021/12/10 07:15:20;;;;;;;20.30;13.83;;;0.60;99.90;;;;;;4993497;28;20524;-75
2021/12/10 07:17:50;;;;;;;17.73;13.77;;;0.70;99.90;;;;;;4966707;28;20202;-74
2021/12/10 07:20:19;;;;;;;21.60;14.40;;;0.80;99.90;;;;;;4987207;28;20251;-74
2021/12/10 07:22:44;;;;;;;17.33;13.53;;;0.80;99.90;;;;;;4991638;28;20252;-74
2021/12/10 07:25:10;;;;;;;20.33;13.93;;;0.80;99.90;;;;;;4991318;28;20229;-74
2021/12/10 07:27:36;;;;;;;21.27;14.43;;;0.80;99.90;;;;;;4982642;28;20221;-73
2021/12/10 07:30:04;;;;;;;16.87;13.33;;;0.90;99.90;;;;;;4988386;28;20182;-74
2021/12/10 07:32:30;;;;;;;16.53;13.03;;;0.90;99.90;;;;;;4991923;28;20204;-74
2021/12/10 07:34:56;;;;;;;16.37;13.03;;;0.90;99.90;;;;;;4992800;28;20182;-74
2021/12/10 07:37:22;;;;;;;15.83;12.20;;;0.90;99.90;;;;;;4978098;28;20245;-74
2021/12/10 07:39:47;;;;;;;17.20;13.93;;;1.00;99.90;;;;;;4991683;28;20542;-75
2021/12/10 07:42:13;;;;;;;16.80;12.80;;;1.00;99.90;;;;;;4991348;28;20555;-75
2021/12/10 07:44:39;;;;;;;17.80;12.80;;;1.00;99.90;;;;;;4989056;28;20189;-73
2021/12/10 07:47:12;;;;;;;14.93;11.63;;;1.00;99.90;;;;;;4975119;28;20612;-72
2021/12/10 07:49:38;;;;;;;16.33;11.90;;;1.00;99.90;;;;;;4987704;28;20174;-72
2021/12/10 07:52:15;;;;;;;19.40;13.43;;;1.00;99.90;;;;;;4973710;28;20386;-70
2021/12/10 07:54:42;;;;;;;18.23;13.17;;;1.00;99.90;;;;;;4985411;28;20178;-71
2021/12/10 07:57:08;;;;;;;15.03;12.90;;;1.00;99.90;;;;;;4991852;28;20201;-72
2021/12/10 07:59:35;;;;;;;16.10;12.93;;;1.00;99.90;;;;;;4992939;28;20222;-71
2021/12/10 08:02:01;;;;;;;18.10;14.73;;;1.10;99.90;;;;;;4990141;28;20531;-70
2021/12/10 08:04:27;;;;;;;16.57;13.53;;;1.00;99.90;;;;;;4973524;28;20234;-71
2021/12/10 08:06:53;;;;;;;16.30;13.87;;;1.10;99.90;;;;;;4973526;28;20178;-70
2021/12/10 08:09:19;;;;;;;18.30;13.27;;;1.00;99.90;;;;;;4977253;28;20280;-71
2021/12/10 08:11:44;;;;;;;16.83;12.37;;;1.20;99.90;;;;;;4986987;28;20206;-75
2021/12/10 08:14:10;;;;;;;14.77;11.63;;;1.20;99.90;;;;;;4987116;28;20183;-76
2021/12/10 08:16:37;;;;;;;14.83;11.70;;;1.30;99.90;;;;;;4963885;28;20610;-76
2021/12/10 08:19:03;;;;;;;13.60;11.10;;;1.30;99.90;;;;;;4992926;28;20190;-76
2021/12/10 08:21:29;;;;;;;12.43;11.00;;;1.30;99.90;;;;;;4962993;28;20206;-77
2021/12/10 08:23:55;;;;;;;11.10;9.93;;;1.50;99.90;;;;;;4956387;28;20189;-76
2021/12/10 08:26:21;;;;;;;12.60;10.03;;;1.50;99.90;;;;;;4967135;28;20182;-76
2021/12/10 08:28:47;;;;;;;12.53;10.20;;;1.60;99.90;;;;;;4984925;28;20301;-76
2021/12/10 08:31:15;;;;;;;12.77;9.93;;;1.70;99.90;;;;;;4973542;28;20722;-76
2021/12/10 08:33:44;;;;;;;12.17;9.63;;;1.90;99.90;;;;;;4955869;28;20677;-74
2021/12/10 08:36:10;;;;;;;10.93;9.60;;;2.20;99.90;;;;;;4981240;28;20265;-73
2021/12/10 08:38:38;;;;;;;10.10;9.10;;;2.30;99.90;;;;;;4991957;28;20205;-76
2021/12/10 08:41:12;;;;;;;10.13;8.37;;;2.60;99.90;;;;;;4991975;28;20692;-73
2021/12/10 08:43:38;;;;;;;10.90;9.17;;;2.60;99.90;;;;;;4978495;28;20668;-73
2021/12/10 08:46:05;;;;;;;10.93;9.07;;;2.80;99.90;;;;;;4991587;28;20551;-73
2021/12/10 08:48:35;;;;;;;13.00;9.10;;;3.20;99.90;;;;;;4989175;28;20201;-78
2021/12/10 08:51:07;;;;;;;9.03;7.97;;;3.20;99.90;;;;;;4991069;28;20182;-78
2021/12/10 08:53:32;;;;;;;9.13;8.10;;;3.30;99.90;;;;;;4991625;28;20667;-78
2021/12/10 08:55:58;;;;;;;9.67;8.60;;;3.30;99.90;;;;;;4992314;28;20177;-79
2021/12/10 08:58:26;;;;;;;10.93;8.10;;;3.40;99.90;;;;;;4990587;28;20194;-77
2021/12/10 09:01:05;;;;;;;9.80;8.47;;;3.30;99.90;;;;;;4986061;28;20677;-77
2021/12/10 09:03:32;;;;;;;9.30;8.40;;;3.40;99.90;;;;;;4971457;28;20227;-78
2021/12/10 09:05:58;;;;;;;10.43;8.73;;;3.40;99.90;;;;;;4974269;28;20541;-77
2021/12/10 09:08:24;;;;;;;10.03;8.97;;;3.20;99.90;;;;;;4991684;28;20197;-77
2021/12/10 09:10:50;;;;;;;10.27;8.53;;;3.20;99.90;;;;;;4973585;28;20197;-77
2021/12/10 09:13:20;;;;;;;11.60;9.10;;;3.40;99.90;;;;;;4991055;28;20177;-78
2021/12/10 09:15:50;;;;;;;10.40;8.67;;;3.80;99.90;;;;;;4985983;28;20177;-78
2021/12/10 09:18:16;;;;;;;9.37;8.00;;;4.40;99.90;;;;;;4990705;28;20295;-77
2021/12/10 09:20:47;;;;;;;9.23;7.40;;;4.70;99.90;;;;;;4989614;28;20666;-77
2021/12/10 09:23:16;;;;;;;12.60;8.47;;;4.90;99.90;;;;;;4990293;28;20263;-77
2021/12/10 09:25:42;;;;;;;8.10;7.10;;;4.90;99.90;;;;;;4954724;28;20175;-75
2021/12/10 09:28:09;;;;;;;7.68;6.90;;;5.70;99.90;;;;;;4989691;28;20202;-77
2021/12/10 09:30:37;;;;;;;6.90;6.30;;;6.80;99.90;;;;;;4992221;28;20177;-77
2021/12/10 09:33:03;;;;;;;7.00;6.30;;;8.50;99.90;;;;;;4990925;28;20265;-84
2021/12/10 09:35:31;;;;;;;6.57;5.90;;;9.60;99.90;;;;;;4986033;28;20214;-82
2021/12/10 09:37:57;;;;;;;8.52;6.63;;;10.40;99.90;;;;;;4982717;28;20280;-82
2021/12/10 09:40:27;;;;;;;6.50;5.78;;;10.00;99.90;;;;;;4988294;28;20571;-81
2021/12/10 09:42:54;;;;;;;7.35;6.07;;;9.40;99.90;;;;;;5002794;28;20212;-81
2021/12/10 09:45:24;;;;;;;9.13;5.95;;;9.60;99.90;;;;;;4991974;28;20186;-81
2021/12/10 09:47:50;;;;;;;7.03;6.43;;;10.20;99.90;;;;;;4996642;28;20194;-81
2021/12/10 09:50:18;;;;;;;6.28;5.68;;;10.60;99.90;;;;;;4991292;28;20289;-82
2021/12/10 09:52:44;;;;;;;7.15;5.90;;;11.50;99.90;;;;;;4996239;28;20210;-82
2021/12/10 09:55:13;;;;;;;7.22;6.53;;;11.90;99.90;;;;;;4992623;28;20256;-83
2021/12/10 09:57:40;;;;;;;7.10;6.22;;;12.60;99.90;;;;;;4992342;28;20243;-82
2021/12/10 10:00:13;;;;;;;7.97;6.80;;;13.20;99.90;;;;;;4994322;28;20637;-83
2021/12/10 10:02:41;;;;;;;9.10;6.50;;;12.80;99.90;;;;;;4993529;28;20189;-82
2021/12/10 10:05:09;;;;;;;7.25;6.53;;;12.60;99.90;;;;;;4971867;28;20265;-82
2021/12/10 10:07:37;;;;;;;7.20;6.50;;;12.30;99.90;;;;;;4993707;28;20206;-83
2021/12/10 10:10:11;;;;;;;6.82;6.20;;;12.60;99.90;;;;;;4993731;28;20214;-83
2021/12/10 10:12:39;;;;;;;7.30;6.55;;;13.30;99.90;;;;;;4988815;28;20210;-81
2021/12/10 10:15:12;;;;;;;7.38;6.25;;;12.80;99.90;;;;;;4976042;28;20198;-81
2021/12/10 10:17:38;;;;;;;7.43;6.75;;;13.20;99.90;;;;;;4991526;28;20189;-81
2021/12/10 10:20:07;;;;;;;6.47;5.97;;;13.40;98.50;;;;;;4984901;28;20677;-82
2021/12/10 10:22:32;;;;;;;6.63;6.03;;;13.80;97.00;;;;;;4992923;28;20185;-81
2021/12/10 10:24:58;;;;;;;7.20;6.50;;;14.00;96.20;;;;;;4992559;28;20596;-80
2021/12/10 10:27:31;;;;;;;7.03;6.03;;;14.40;94.80;;;;;;4978891;28;20205;-81
2021/12/10 10:30:07;;;;;;;5.65;5.20;;;15.30;93.40;;;;;;4973619;28;20202;-81
2021/12/10 10:32:34;;;;;;;6.32;5.45;;;15.90;91.90;;;;;;4980834;28;20213;-81
2021/12/10 10:35:06;;;;;;;7.13;5.15;;;16.40;83.90;;;;;;4974017;28;20649;-76
2021/12/10 10:37:33;;;;;;;4.95;4.43;;;16.30;83.60;;;;;;5001632;28;20197;-78
2021/12/10 10:40:00;;;;;;;5.82;4.75;;;16.40;78.40;;;;;;4992506;28;20174;-78
2021/12/10 10:42:28;;;;;;;5.43;4.93;;;15.90;75.90;;;;;;4993869;28;20188;-78
2021/12/10 10:45:02;;;;;;;5.55;4.40;;;16.80;76.00;;;;;;4999140;28;20179;-79
2021/12/10 10:47:28;;;;;;;6.13;4.53;;;18.00;73.50;;;;;;4995148;28;20698;-78
2021/12/10 10:50:22;;;;;;;4.88;4.35;;;18.80;69.20;;;;;;4987289;28;20182;-79
2021/12/10 10:52:56;;;;;;;4.93;4.47;;;19.40;64.30;;;;;;4994669;28;20309;-78
2021/12/10 10:55:31;;;;;;;5.20;4.47;;;20.00;62.10;;;;;;4990154;28;20233;-79
2021/12/10 10:58:09;;;;;;;4.70;4.30;;;19.60;58.70;;;;;;4988451;28;20495;-79
2021/12/10 11:01:14;;;;;;;4.95;4.10;;;19.80;58.60;;;;;;4976239;28;20178;-81
2021/12/10 11:03:52;;;;;;;4.55;4.15;;;20.60;56.80;;;;;;4996776;28;20179;-79
2021/12/10 11:06:24;;;;;;;5.22;3.90;;;19.50;56.30;;;;;;4983769;28;20186;-80
2021/12/10 11:08:53;;;;;;;3.58;3.28;;;19.30;57.80;;;;;;4984147;28;20194;-80
2021/12/10 11:11:35;;;;;;;4.60;3.88;;;18.70;56.50;;;;;;5002005;28;20214;-80
2021/12/10 11:14:06;;;;;;;3.97;3.15;;;19.50;57.20;;;;;;5005580;28;20174;-81
2021/12/10 11:16:34;;;;;;;5.38;3.72;;;19.80;56.10;;;;;;4997219;28;20174;-81
2021/12/10 11:19:04;;;;;;;3.38;3.08;;;20.10;54.80;;;;;;4975631;28;20194;-81
2021/12/10 11:21:54;;;;;;;3.83;3.53;;;20.40;54.10;;;;;;5006177;28;20285;-81
2021/12/10 11:24:31;;;;;;;3.70;3.40;;;19.80;53.00;;;;;;4990813;28;20197;-79
2021/12/10 11:27:20;;;;;;;4.07;3.38;;;18.10;54.80;;;;;;4989793;28;20185;-80
2021/12/10 11:30:02;;;;;;;4.72;3.75;;;16.00;57.40;;;;;;4966888;28;20201;-79
2021/12/10 11:32:39;;;;;;;3.92;3.58;;;14.20;62.40;;;;;;4984914;28;20210;-79
2021/12/10 11:35:10;;;;;;;3.67;3.38;;;13.60;65.30;;;;;;4987635;28;20272;-79
2021/12/10 11:38:07;;;;;;;4.05;3.70;;;13.60;66.10;;;;;;4988557;28;20214;-79
2021/12/10 11:40:42;;;;;;;4.70;4.00;;;14.10;65.70;;;;;;4988120;28;20221;-79
2021/12/10 11:48:50;;;;;;;4.75;4.07;;;15.00;63.90;;;;;;5000945;28;20261;-79
2021/12/10 11:51:36;;;;;;;5.28;4.22;;;15.60;62.50;;;;;;4991827;28;20205;-79
2021/12/10 11:54:16;;;;;;;4.72;4.32;;;14.90;62.50;;;;;;4996055;28;20174;-76
2021/12/10 11:56:50;;;;;;;4.25;3.83;;;13.90;64.50;;;;;;4993556;28;20177;-80
2021/12/10 11:59:22;;;;;;;4.57;3.90;;;13.40;67.00;;;;;;4992934;28;20177;-76
2021/12/10 12:02:00;;;;;;;4.47;4.07;;;12.50;68.30;;;;;;4993979;28;20177;-76
2021/12/10 12:04:40;;;;;;;5.60;4.30;;;13.00;69.00;;;;;;4992410;28;20276;-77
2021/12/10 12:07:34;;;;;;;4.70;4.10;;;13.00;68.50;;;;;;4993831;28;20599;-77
2021/12/10 12:10:12;;;;;;;5.00;4.22;;;13.20;68.50;;;;;;4983704;28;20186;-77
2021/12/10 12:12:49;;;;;;;5.25;4.18;;;13.40;68.30;;;;;;4993347;28;20204;-77
2021/12/10 12:15:24;;;;;;;4.60;4.20;;;13.50;67.60;;;;;;4993406;28;20180;-77
2021/12/10 12:17:53;;;;;;;4.97;4.25;;;14.80;66.80;;;;;;4979449;28;20201;-77
2021/12/10 12:20:33;;;;;;;5.43;4.18;;;16.20;62.70;;;;;;4987868;28;20186;-77
2021/12/10 12:26:07;;;;;;;5.25;3.90;;;14.30;62.40;;;;;;4979392;28;20190;-82
2021/12/10 12:28:38;;;;;;;4.78;4.13;;;13.10;67.60;;;;;;4984518;28;20987;-76
2021/12/10 12:31:09;;;;;;;6.60;4.22;;;12.00;69.60;;;;;;4985215;28;20178;-77
2021/12/10 12:34:00;;;;;;;5.90;4.18;;;11.40;71.80;;;;;;4978009;28;20186;-76
2021/12/10 12:36:40;;;;;;;4.50;4.05;;;11.30;72.90;;;;;;4986683;28;20178;-75
2021/12/10 12:39:13;;;;;;;5.57;4.50;;;11.60;73.10;;;;;;4984511;28;20201;-75
2021/12/10 12:41:45;;;;;;;5.18;4.68;;;11.50;72.70;;;;;;4979210;28;20177;-74
2021/12/10 12:44:19;;;;;;;4.65;3.88;;;11.50;73.50;;;;;;4980256;28;20174;-75
2021/12/10 12:47:02;;;;;;;4.60;3.80;;;11.30;73.50;;;;;;4986466;28;20448;-79
2021/12/10 12:49:46;;;;;;;5.60;4.00;;;10.80;74.80;;;;;;4997988;28;20182;-77
2021/12/10 12:52:13;;;;;;;5.05;3.90;;;10.40;76.00;;;;;;4983601;28;20202;-76
2021/12/10 12:55:00;;;;;;;4.32;3.75;;;10.30;76.90;;;;;;4976169;28;20182;-76
2021/12/10 12:57:47;;;;;;;5.10;4.07;;;9.90;78.90;;;;;;4971724;28;20919;-77
2021/12/10 13:00:25;;;;;;;4.57;3.97;;;10.00;78.80;;;;;;4972932;28;20561;-77
2021/12/10 13:02:53;;;;;;;6.95;4.45;;;10.10;78.80;;;;;;4973632;28;20179;-78
2021/12/10 13:05:29;;;;;;;3.95;3.60;;;9.90;80.00;;;;;;4985272;28;20193;-77
2021/12/10 13:08:08;;;;;;;5.43;4.15;;;9.20;81.10;;;;;;4989928;28;20755;-77
2021/12/10 13:10:38;;;;;;;5.70;4.50;;;8.70;84.20;;;;;;4984646;28;20692;-77
2021/12/10 13:13:14;;;;;;;6.20;3.88;;;8.30;86.50;;;;;;4986677;28;20202;-77
2021/12/10 13:15:49;;;;;;;4.68;4.28;;;7.80;88.40;;;;;;4984469;28;20593;-77